Time;durP1;ratioP1;P1;durP2;ratioP2;P2;SDS_P1;SDS_P2;PMS_P1;PMS_P2;Temp;Humidity;BMP_temperature;BMP_pressure;BME280_temperature;BME280_humidity;BME280_pressure;Samples;Min_cycle;Max_cycle;Signal;HPM_P1;HPM_P2
2022/04/16 00:04:28;;;;;;;4.43;2.03;;;;;;;7.97;100.00;101193.66;10454721;28;20216;-64
2022/04/16 00:09:31;;;;;;;4.40;2.23;;;;;;;7.89;100.00;101195.28;10471167;28;20267;-62
2022/04/16 00:14:35;;;;;;;3.73;1.80;;;;;;;7.82;100.00;101198.63;10454428;28;20232;-64
2022/04/16 00:19:40;;;;;;;3.70;1.57;;;;;;;7.78;100.00;101203.72;10454496;28;20221;-64
2022/04/16 00:24:46;;;;;;;4.33;1.80;;;;;;;7.80;100.00;101202.06;10454521;28;20667;-65
2022/04/16 00:29:52;;;;;;;5.30;1.97;;;;;;;7.79;100.00;101208.91;10459072;28;20210;-63
2022/04/16 00:34:57;;;;;;;4.47;1.90;;;;;;;7.76;100.00;101213.16;10461980;28;20632;-65
2022/04/16 00:40:00;;;;;;;3.43;1.57;;;;;;;7.77;100.00;101205.44;10461556;28;20197;-66
2022/04/16 00:45:04;;;;;;;6.70;3.17;;;;;;;7.64;100.00;101218.16;10461434;28;20200;-66
2022/04/16 00:50:10;;;;;;;5.10;1.87;;;;;;;7.67;100.00;101221.66;10461779;28;20208;-63
2022/04/16 00:55:14;;;;;;;3.80;1.70;;;;;;;7.72;100.00;101226.88;10461046;28;20196;-63
2022/04/16 01:00:17;;;;;;;4.50;1.90;;;;;;;7.79;100.00;101233.88;10461045;28;20192;-63
2022/04/16 01:05:22;;;;;;;4.97;2.10;;;;;;;7.73;100.00;101238.97;10460804;28;20203;-63
2022/04/16 01:10:28;;;;;;;4.93;2.20;;;;;;;7.66;100.00;101237.97;10460372;28;20208;-62
2022/04/16 01:15:32;;;;;;;4.73;2.37;;;;;;;7.56;100.00;101254.19;10460335;28;20232;-69
2022/04/16 01:20:38;;;;;;;5.10;2.23;;;;;;;7.50;100.00;101250.63;10460116;28;20539;-68
2022/04/16 01:25:44;;;;;;;4.90;2.37;;;;;;;7.52;100.00;101264.47;10460224;28;20189;-69
2022/04/16 01:30:47;;;;;;;4.80;2.50;;;;;;;7.51;100.00;101263.56;10459696;28;20221;-71
2022/04/16 01:35:53;;;;;;;5.97;3.17;;;;;;;7.51;100.00;101275.63;10459708;28;20193;-67
2022/04/16 01:40:58;;;;;;;5.77;2.70;;;;;;;7.38;100.00;101276.25;10458901;28;20207;-69
2022/04/16 01:46:06;;;;;;;6.60;3.10;;;;;;;7.43;100.00;101290.13;10462471;28;20204;-69
2022/04/16 01:51:10;;;;;;;6.30;2.83;;;;;;;7.45;100.00;101288.44;10462679;28;20278;-70
2022/04/16 01:56:15;;;;;;;6.10;3.17;;;;;;;7.27;100.00;101299.31;10462183;28;20276;-71
2022/04/16 02:01:19;;;;;;;5.93;3.17;;;;;;;7.15;100.00;101306.81;10462640;28;20207;-70
2022/04/16 02:06:23;;;;;;;7.03;3.47;;;;;;;7.07;100.00;101306.66;10461737;28;20188;-71
2022/04/16 02:11:27;;;;;;;5.40;2.80;;;;;;;7.19;100.00;101312.91;10461274;28;20326;-73
2022/04/16 02:16:31;;;;;;;6.60;3.67;;;;;;;7.19;100.00;101318.06;10461560;28;20229;-71
2022/04/16 02:21:35;;;;;;;5.97;3.60;;;;;;;7.18;100.00;101316.34;10461407;28;20197;-70
2022/04/16 02:26:40;;;;;;;7.60;4.50;;;;;;;7.12;100.00;101311.94;10460947;28;20535;-70
2022/04/16 02:31:44;;;;;;;7.83;3.90;;;;;;;7.18;100.00;101308.59;10460381;28;20235;-72
2022/04/16 02:36:48;;;;;;;6.37;3.70;;;;;;;7.09;100.00;101314.47;10460565;28;20492;-69
2022/04/16 02:41:53;;;;;;;6.60;2.80;;;;;;;7.06;100.00;101323.88;10460507;28;20207;-71
2022/04/16 02:47:09;;;;;;;6.63;2.73;;;;;;;7.02;100.00;101338.41;10460251;28;20692;-70
2022/04/16 02:52:12;;;;;;;6.30;2.67;;;;;;;7.14;100.00;101343.81;10459952;28;20230;-70
2022/04/16 02:57:16;;;;;;;4.43;2.37;;;;;;;7.13;100.00;101342.06;10459788;28;20203;-65
2022/04/16 03:02:20;;;;;;;6.90;2.50;;;;;;;7.01;100.00;101354.72;10459505;28;20203;-68
2022/04/16 03:07:23;;;;;;;5.90;2.33;;;;;;;6.98;100.00;101362.41;10459528;28;20199;-68
2022/04/16 03:12:28;;;;;;;4.57;2.30;;;;;;;6.98;100.00;101371.03;10459264;28;20237;-67
2022/04/16 03:17:35;;;;;;;4.90;2.07;;;;;;;6.96;99.49;101371.81;10458911;28;20280;-68
2022/04/16 03:22:38;;;;;;;5.13;2.20;;;;;;;6.94;99.62;101384.69;10459147;28;20281;-66
2022/04/16 03:27:43;;;;;;;5.70;2.30;;;;;;;6.92;100.00;101393.22;10459225;28;20209;-69
2022/04/16 03:32:48;;;;;;;5.20;2.40;;;;;;;6.93;98.13;101384.66;10458755;28;20659;-68
2022/04/16 03:37:52;;;;;;;176.90;95.57;;;;;;;6.96;96.70;101395.03;10458516;28;20536;-67
2022/04/16 03:42:58;;;;;;;4.57;2.23;;;;;;;6.89;96.41;101400.91;10458435;28;20207;-67
2022/04/16 03:48:03;;;;;;;4.67;2.00;;;;;;;6.84;96.37;101411.16;10458646;28;20272;-68
2022/04/16 03:53:07;;;;;;;6.03;2.13;;;;;;;6.84;95.08;101430.91;10458980;28;20213;-66
2022/04/16 04:03:36;;;;;;;4.30;2.00;;;;;;;6.68;92.60;101436.56;10111049;28;10000199;-69
2022/04/16 04:08:40;;;;;;;3.73;1.70;;;;;;;6.50;91.40;101443.88;10463220;28;20286;-66
2022/04/16 04:13:45;;;;;;;3.50;1.43;;;;;;;6.51;90.61;101456.81;10463647;28;20232;-66
2022/04/16 04:18:48;;;;;;;6.50;2.77;;;;;;;6.57;91.83;101471.56;10465935;28;20197;-69
2022/04/16 04:23:57;;;;;;;8.87;4.37;;;;;;;6.44;89.90;101464.34;10466532;28;20209;-70
2022/04/16 04:29:01;;;;;;;3.10;1.20;;;;;;;6.30;88.19;101476.06;10465859;28;20197;-69
2022/04/16 04:34:05;;;;;;;3.60;1.33;;;;;;;6.15;87.33;101491.13;10465818;28;20217;-67
2022/04/16 04:39:08;;;;;;;3.37;1.30;;;;;;;5.97;86.47;101493.22;10465198;28;20639;-67
2022/04/16 04:44:14;;;;;;;3.57;1.07;;;;;;;5.85;87.31;101507.50;10465332;28;20222;-69
2022/04/16 04:49:17;;;;;;;4.00;1.23;;;;;;;5.84;87.67;101516.09;10464682;28;20189;-68
2022/04/16 04:54:21;;;;;;;2.63;1.20;;;;;;;5.68;87.27;101520.72;10464515;28;20223;-68
2022/04/16 04:59:26;;;;;;;6.10;1.37;;;;;;;5.70;88.37;101527.66;10464628;28;20200;-68
2022/04/16 05:04:29;;;;;;;3.53;1.30;;;;;;;5.78;88.51;101526.16;10464225;28;20541;-67
2022/04/16 05:09:32;;;;;;;3.03;1.23;;;;;;;5.84;88.86;101534.13;10463911;28;20220;-69
2022/04/16 05:14:37;;;;;;;5.30;1.50;;;;;;;6.03;89.33;101534.59;10462326;28;20698;-68
2022/04/16 05:19:40;;;;;;;2.70;1.10;;;;;;;6.01;87.05;101554.28;10460738;28;20233;-68
2022/04/16 05:24:44;;;;;;;3.57;1.63;;;;;;;5.94;87.84;101566.13;10460310;28;20215;-70
2022/04/16 05:30:06;;;;;;;3.50;1.37;;;;;;;5.73;87.32;101573.22;10459863;28;20375;-69
2022/04/16 05:35:11;;;;;;;3.70;1.20;;;;;;;5.74;88.43;101564.69;10459814;28;20607;-70
2022/04/16 05:40:15;;;;;;;4.30;1.30;;;;;;;5.85;89.10;101573.59;10462473;28;20195;-68
2022/04/16 05:45:19;;;;;;;4.53;1.20;;;;;;;5.86;88.82;101575.38;10462668;28;20203;-68
2022/04/16 05:50:22;;;;;;;4.07;0.90;;;;;;;5.84;84.69;101585.63;10462471;28;20636;-68
2022/04/16 05:55:26;;;;;;;2.53;0.93;;;;;;;5.57;82.67;101592.50;10462006;28;20213;-69
2022/04/16 06:00:30;;;;;;;3.10;1.13;;;;;;;5.72;82.73;101602.41;10461920;28;20189;-69
2022/04/16 06:05:34;;;;;;;5.00;1.27;;;;;;;5.69;84.73;101603.16;10461998;28;20643;-71
2022/04/16 06:10:37;;;;;;;3.60;1.30;;;;;;;5.63;82.05;101594.38;10461624;28;20197;-68
2022/04/16 06:15:47;;;;;;;2.83;0.90;;;;;;;5.60;80.89;101607.19;10461155;28;20323;-70
2022/04/16 06:20:50;;;;;;;3.70;1.30;;;;;;;5.64;80.73;101611.59;10460907;28;20217;-70
2022/04/16 06:25:53;;;;;;;4.73;1.30;;;;;;;5.80;83.41;101613.78;10461168;28;20291;-70
2022/04/16 06:30:58;;;;;;;3.07;1.20;;;;;;;5.93;82.15;101617.63;10461062;28;20213;-70
2022/04/16 06:36:01;;;;;;;3.10;1.30;;;;;;;5.82;80.58;101630.16;10460798;28;20225;-70
2022/04/16 06:41:05;;;;;;;3.57;1.30;;;;;;;5.99;81.26;101623.81;10460493;28;20495;-70
2022/04/16 06:46:09;;;;;;;2.73;1.20;;;;;;;6.13;80.00;101629.34;10460028;28;20231;-70
2022/04/16 06:51:13;;;;;;;3.63;1.10;;;;;;;6.18;78.73;101638.13;10459943;28;20296;-70
2022/04/16 06:56:16;;;;;;;3.87;1.30;;;;;;;6.44;77.39;101635.41;10459755;28;20235;-68
2022/04/16 07:01:21;;;;;;;26.30;10.03;;;;;;;6.70;78.83;101625.78;10459847;28;20227;-71
2022/04/16 07:06:24;;;;;;;4.37;1.63;;;;;;;6.97;75.58;101629.06;10459253;28;20211;-71
2022/04/16 07:11:27;;;;;;;3.70;1.53;;;;;;;7.16;74.17;101648.44;10459683;28;20314;-71
2022/04/16 07:16:32;;;;;;;4.33;1.30;;;;;;;7.37;75.10;101648.97;10459000;28;20290;-70
2022/04/16 07:21:35;;;;;;;3.90;1.40;;;;;;;7.35;73.03;101663.56;10458728;28;20535;-69
2022/04/16 07:26:39;;;;;;;3.30;1.40;;;;;;;7.22;72.35;101667.53;10458837;28;20306;-70
2022/04/16 07:31:43;;;;;;;4.23;1.70;;;;;;;7.33;71.62;101671.25;10458574;28;20731;-70
2022/04/16 07:36:47;;;;;;;3.57;1.27;;;;;;;7.22;71.20;101654.63;10458314;28;20302;-68
2022/04/16 07:41:51;;;;;;;6.17;2.77;;;;;;;7.49;72.37;101668.19;10458784;28;20239;-70
2022/04/16 07:46:55;;;;;;;3.50;1.20;;;;;;;7.45;68.24;101681.88;10458411;28;20228;-64
2022/04/16 07:51:59;;;;;;;3.47;1.37;;;;;;;7.47;70.93;101672.44;10106528;28;10000340;-64
2022/04/16 07:57:02;;;;;;;2.90;1.30;;;;;;;7.65;70.01;101682.31;10454691;28;20212;-64
2022/04/16 08:02:07;;;;;;;3.90;1.50;;;;;;;7.54;68.46;101676.06;10454614;28;20300;-65
2022/04/16 08:07:11;;;;;;;4.30;1.33;;;;;;;7.60;67.79;101689.09;10454664;28;20240;-65
2022/04/16 08:12:14;;;;;;;3.53;1.53;;;;;;;7.63;67.24;101686.59;10454388;28;20226;-65
2022/04/16 08:17:18;;;;;;;4.47;1.30;;;;;;;8.06;65.71;101685.00;10454825;28;20251;-63
2022/04/16 08:22:22;;;;;;;3.53;1.23;;;;;;;8.18;64.81;101692.13;10454476;28;20236;-64
2022/04/16 08:27:25;;;;;;;6.87;2.83;;;;;;;8.01;65.21;101696.94;10453749;28;20213;-63
2022/04/16 08:32:35;;;;;;;3.93;1.47;;;;;;;8.16;65.11;101686.06;10454306;28;20659;-63
2022/04/16 08:37:39;;;;;;;4.10;1.60;;;;;;;8.42;64.64;101695.22;10454183;28;20251;-63
2022/04/16 08:42:44;;;;;;;4.03;1.73;;;;;;;8.81;63.99;101693.44;10453928;28;20239;-64
2022/04/16 08:47:50;;;;;;;4.17;1.73;;;;;;;9.15;63.48;101706.13;10454417;28;20648;-67
2022/04/16 08:52:54;;;;;;;4.20;1.37;;;;;;;9.49;63.83;101698.91;10461510;28;20225;-66
2022/04/16 08:57:57;;;;;;;3.43;1.20;;;;;;;9.76;62.71;101707.09;10460272;28;20221;-69
2022/04/16 09:03:05;;;;;;;3.13;1.10;;;;;;;9.86;59.98;101708.97;10460837;28;20669;-68
2022/04/16 09:08:08;;;;;;;8.27;2.07;;;;;;;9.94;59.07;101710.81;10460609;28;20567;-68
2022/04/16 09:13:12;;;;;;;3.43;1.53;;;;;;;9.83;59.32;101706.34;10460733;28;20332;-69
2022/04/16 09:18:19;;;;;;;3.10;1.20;;;;;;;9.81;59.76;101715.81;10460623;28;20229;-69
2022/04/16 09:23:23;;;;;;;3.50;1.33;;;;;;;9.78;59.22;101713.19;10460472;28;20216;-69
2022/04/16 09:28:26;;;;;;;5.30;1.60;;;;;;;9.85;58.10;101715.91;10457488;28;20465;-67
2022/04/16 09:33:38;;;;;;;5.43;1.30;;;;;;;11.03;56.17;101704.38;10458901;28;20437;-66
2022/04/16 09:38:42;;;;;;;4.73;1.30;;;;;;;11.83;52.58;101707.66;10459761;28;20215;-63
2022/04/16 09:43:46;;;;;;;4.23;1.00;;;;;;;11.64;53.44;101709.28;10459279;28;20217;-63
2022/04/16 09:48:52;;;;;;;4.03;1.07;;;;;;;11.80;53.28;101720.66;10459179;28;20220;-63
2022/04/16 09:53:58;;;;;;;3.30;1.40;;;;;;;13.53;49.75;101698.63;10458856;28;20216;-64
2022/04/16 09:59:04;;;;;;;4.13;1.30;;;;;;;14.92;47.53;101690.34;10458766;28;20217;-64
2022/04/16 10:04:09;;;;;;;4.23;1.17;;;;;;;13.76;46.85;101707.31;10458259;28;20248;-65
2022/04/16 10:09:17;;;;;;;2.00;0.90;;;;;;;12.68;48.05;101715.88;10458437;28;20287;-65
2022/04/16 10:14:27;;;;;;;6.27;1.20;;;;;;;12.17;48.09;101717.38;10458276;28;20234;-69
2022/04/16 10:19:39;;;;;;;5.73;1.60;;;;;;;12.00;49.09;101716.44;10458094;28;20220;-69
2022/04/16 10:24:48;;;;;;;4.27;1.27;;;;;;;12.24;50.29;101713.97;10457681;28;20693;-68
2022/04/16 10:29:55;;;;;;;8.07;2.87;;;;;;;14.25;44.98;101699.34;10458028;28;20221;-70
2022/04/16 10:35:05;;;;;;;3.40;0.90;;;;;;;16.18;44.14;101690.94;10457086;28;20247;-69
2022/04/16 10:40:18;;;;;;;5.37;1.40;;;;;;;15.25;44.38;101697.94;10457364;28;20236;-69
2022/04/16 10:45:21;;;;;;;5.00;1.00;;;;;;;13.56;45.02;101714.28;10456544;28;20674;-68
2022/04/16 10:50:28;;;;;;;5.13;1.47;;;;;;;13.30;47.06;101709.94;10456464;28;20679;-68
2022/04/16 10:55:31;;;;;;;2.80;1.07;;;;;;;13.70;44.90;101711.69;10456582;28;20225;-65
2022/04/16 11:00:37;;;;;;;6.87;2.33;;;;;;;16.25;41.25;101696.97;10456398;28;20545;-63
2022/04/16 11:05:42;;;;;;;4.03;0.80;;;;;;;16.06;42.21;101694.59;10456627;28;20217;-60
2022/04/16 11:10:46;;;;;;;4.90;2.37;;;;;;;14.27;42.82;101710.69;10455931;28;20657;-67
2022/04/16 11:15:50;;;;;;;70.03;41.00;;;;;;;13.39;43.65;101718.63;10455107;28;20318;-68
2022/04/16 11:20:56;;;;;;;4.90;1.47;;;;;;;13.07;43.56;101720.34;10455726;28;20224;-71
2022/04/16 11:36:38;;;;;;;2.47;0.90;;;;;;;14.00;43.88;101734.22;10415946;28;20556;-69
2022/04/16 11:41:47;;;;;;;2.17;0.97;;;;;;;16.44;39.68;101714.22;10458604;28;20223;-69
2022/04/16 11:46:50;;;;;;;3.60;0.80;;;;;;;15.41;39.08;101720.50;10459070;28;20217;-68
2022/04/16 11:51:55;;;;;;;5.77;1.00;;;;;;;14.04;41.33;101736.84;10458705;28;20223;-68
2022/04/16 11:56:59;;;;;;;2.37;0.83;;;;;;;13.46;40.55;101733.41;10458053;28;20331;-66
2022/04/16 12:02:07;;;;;;;2.47;0.77;;;;;;;15.92;40.24;101722.66;10458142;28;20212;-68
2022/04/16 12:07:17;;;;;;;1.40;0.67;;;;;;;17.18;36.45;101709.72;10474838;28;20639;-68
2022/04/16 12:12:22;;;;;;;2.03;0.80;;;;;;;15.41;39.60;101720.50;10457599;28;20635;-69
2022/04/16 12:17:29;;;;;;;3.10;1.03;;;;;;;14.21;39.84;101734.19;10457619;28;20235;-71
2022/04/16 12:22:34;;;;;;;1.97;1.00;;;;;;;16.73;37.91;101733.09;10457789;28;20355;-68
2022/04/16 12:27:44;;;;;;;1.40;0.70;;;;;;;18.72;36.71;101713.88;10466025;28;20229;-69
2022/04/16 12:32:58;;;;;;;3.20;1.10;;;;;;;17.30;37.41;101716.50;10465838;28;20225;-67
2022/04/16 12:38:04;;;;;;;2.10;0.70;;;;;;;15.57;38.44;101732.59;10465306;28;20610;-68
2022/04/16 12:43:09;;;;;;;3.50;1.30;;;;;;;14.51;40.68;101740.19;10465683;28;20787;-69
2022/04/16 12:48:12;;;;;;;5.27;1.37;;;;;;;15.95;40.65;101733.09;10464839;28;20221;-68
2022/04/16 12:53:17;;;;;;;3.27;0.90;;;;;;;16.45;37.33;101727.28;10465148;28;20277;-69
2022/04/16 12:58:20;;;;;;;2.87;1.10;;;;;;;15.11;37.74;101732.91;10464778;28;20675;-69
2022/04/16 13:03:24;;;;;;;3.20;1.03;;;;;;;15.47;38.90;101740.53;10464470;28;20686;-68
2022/04/16 13:08:30;;;;;;;2.77;0.90;;;;;;;14.21;39.86;101749.84;10464033;28;20725;-69
2022/04/16 13:13:33;;;;;;;2.87;1.13;;;;;;;15.02;39.81;101755.63;10464096;28;20831;-69
2022/04/16 13:18:36;;;;;;;2.63;1.10;;;;;;;18.31;35.08;101736.59;10463960;28;20224;-67
2022/04/16 13:23:41;;;;;;;2.20;0.80;;;;;;;17.24;37.76;101732.34;10463641;28;20525;-67
2022/04/16 13:28:44;;;;;;;5.85;1.25;;;;;;;19.91;35.20;101722.38;10463348;28;20235;-67
2022/04/16 13:33:48;;;;;;;4.10;1.03;;;;;;;16.39;37.42;101740.50;10463090;28;20235;-70
2022/04/16 13:38:53;;;;;;;3.07;1.13;;;;;;;14.71;39.75;101743.59;10462099;28;20235;-69
2022/04/16 13:43:56;;;;;;;4.20;1.00;;;;;;;14.88;39.87;101749.63;10462968;28;20221;-71
2022/04/16 13:49:00;;;;;;;7.13;1.10;;;;;;;14.77;40.53;101734.88;10462910;28;20225;-71
2022/04/16 13:54:04;;;;;;;9.23;3.50;;;;;;;14.96;38.49;101741.75;10463415;28;20537;-71
2022/04/16 13:59:09;;;;;;;3.00;1.20;;;;;;;14.15;40.39;101740.28;10462483;28;20228;-72
2022/04/16 14:04:12;;;;;;;2.27;0.90;;;;;;;14.85;39.49;101743.53;10462366;28;20684;-70
2022/04/16 14:09:17;;;;;;;1.60;0.60;;;;;;;15.29;39.96;101738.03;10462176;28;20220;-71
2022/04/16 14:14:20;;;;;;;1.83;0.70;;;;;;;15.09;37.92;101743.38;10462024;28;20323;-70
2022/04/16 14:19:24;;;;;;;2.30;0.77;;;;;;;15.78;36.24;101737.63;10463786;28;20297;-70
2022/04/16 14:24:29;;;;;;;2.30;0.70;;;;;;;15.36;39.13;101737.94;10461681;28;20220;-69
2022/04/16 14:29:32;;;;;;;2.67;0.90;;;;;;;14.19;38.85;101743.75;10461120;28;20652;-72
2022/04/16 14:34:35;;;;;;;2.93;1.10;;;;;;;13.75;40.91;101743.84;10461126;28;20667;-72
2022/04/16 14:39:40;;;;;;;3.70;1.07;;;;;;;14.70;39.23;101744.47;10460613;28;20223;-70
2022/04/16 14:44:47;;;;;;;2.63;0.80;;;;;;;15.72;38.34;101734.22;10462461;28;20234;-73
2022/04/16 14:49:50;;;;;;;4.17;0.70;;;;;;;15.56;37.70;101730.00;10460405;28;20216;-69
2022/04/16 14:54:56;;;;;;;4.17;0.90;;;;;;;14.43;37.71;101741.97;10460252;28;20221;-70
2022/04/16 15:00:11;;;;;;;3.83;1.07;;;;;;;14.67;38.60;101744.47;10460296;28;20216;-71
2022/04/16 15:05:14;;;;;;;3.10;1.07;;;;;;;14.63;39.71;101747.13;10460169;28;20217;-70
2022/04/16 15:10:21;;;;;;;2.70;0.97;;;;;;;13.78;39.96;101754.28;10461481;28;20221;-70
2022/04/16 15:15:24;;;;;;;4.73;1.00;;;;;;;13.08;39.06;101769.00;10460297;28;20228;-71
2022/04/16 15:20:29;;;;;;;2.83;0.90;;;;;;;12.68;40.63;101764.50;10459357;28;20227;-71
2022/04/16 15:25:34;;;;;;;3.43;1.20;;;;;;;12.31;41.91;101766.06;10459309;28;20220;-70
2022/04/16 15:30:38;;;;;;;3.60;1.10;;;;;;;12.28;42.10;101770.38;10459176;28;20676;-74
2022/04/16 15:35:41;;;;;;;3.13;1.20;;;;;;;11.98;42.39;101760.66;10460545;28;20220;-73
2022/04/16 15:40:46;;;;;;;5.17;1.20;;;;;;;11.99;44.14;101769.34;10459465;28;20213;-70
2022/04/16 15:45:49;;;;;;;3.23;0.97;;;;;;;12.28;42.77;101770.38;10458650;28;20618;-72
2022/04/16 15:50:53;;;;;;;4.00;1.30;;;;;;;12.47;42.55;101764.41;10458960;28;20726;-73
2022/04/16 15:55:58;;;;;;;4.60;1.73;;;;;;;12.16;43.81;101763.38;10459005;28;20226;-75
2022/04/16 16:01:02;;;;;;;2.70;1.17;;;;;;;11.86;41.84;101773.59;10466493;28;20236;-72
2022/04/16 16:06:06;;;;;;;2.83;1.10;;;;;;;11.74;43.77;101780.41;10466961;28;20303;-72
2022/04/16 16:11:10;;;;;;;4.43;1.00;;;;;;;11.81;43.67;101779.59;10466429;28;20219;-72
2022/04/16 16:16:14;;;;;;;3.40;1.37;;;;;;;11.68;44.42;101780.38;10466299;28;20232;-70
2022/04/16 16:21:18;;;;;;;3.47;1.10;;;;;;;11.39;43.08;101782.66;10466448;28;20239;-71
2022/04/16 16:26:24;;;;;;;4.10;1.27;;;;;;;11.23;44.73;101778.22;10468354;28;20226;-69
2022/04/16 16:31:28;;;;;;;3.27;1.20;;;;;;;11.04;47.78;101782.34;10465643;28;20299;-71
2022/04/16 16:36:32;;;;;;;3.83;1.20;;;;;;;10.99;47.96;101790.94;10481237;28;20232;-69
2022/04/16 16:41:36;;;;;;;3.03;1.10;;;;;;;11.06;44.96;101783.22;10465896;28;20208;-70
2022/04/16 16:46:41;;;;;;;2.83;1.10;;;;;;;10.97;47.16;101784.84;10465458;28;20224;-72
2022/04/16 16:51:44;;;;;;;4.17;1.27;;;;;;;10.92;46.76;101790.00;10467618;28;20285;-74
2022/04/16 16:56:49;;;;;;;6.17;1.57;;;;;;;10.80;45.62;101805.44;10464954;28;20239;-72
2022/04/16 17:01:53;;;;;;;2.93;1.03;;;;;;;10.68;47.06;101807.91;10464698;28;20295;-73
2022/04/16 17:07:23;;;;;;;5.93;2.00;;;;;;;10.49;46.02;101816.28;10464660;28;20560;-71
2022/04/16 17:12:23;;;;;;;4.63;1.33;;;;;;;10.36;47.54;101819.56;10464914;28;20252;-70
2022/04/16 17:22:50;;;;;;;4.27;1.27;;;;;;;10.15;47.31;101840.88;10463884;28;20227;-70
2022/04/16 17:27:55;;;;;;;3.73;1.23;;;;;;;10.07;47.01;101842.44;10463812;28;20240;-73
2022/04/16 17:32:59;;;;;;;3.73;1.53;;;;;;;9.92;47.87;101838.75;10446161;28;20224;-71
2022/04/16 17:38:04;;;;;;;4.13;1.70;;;;;;;9.71;48.63;101848.75;10463235;28;20679;-70
2022/04/16 17:43:09;;;;;;;8.17;4.07;;;;;;;9.43;49.72;101859.44;10464614;28;20240;-71
2022/04/16 17:48:14;;;;;;;4.93;1.60;;;;;;;9.44;48.72;101863.81;10469105;28;20230;-68
2022/04/16 17:53:17;;;;;;;5.93;2.03;;;;;;;9.46;51.07;101864.72;10461947;28;20213;-66
2022/04/16 17:58:25;;;;;;;5.53;1.90;;;;;;;9.46;48.52;101870.75;10462410;28;20346;-72
2022/04/16 18:03:29;;;;;;;4.53;1.60;;;;;;;9.45;50.13;101874.19;10461533;28;20208;-70
2022/04/16 18:08:32;;;;;;;5.47;1.30;;;;;;;9.35;48.96;101885.25;10463804;28;20675;-71
2022/04/16 18:13:38;;;;;;;6.20;2.07;;;;;;;9.30;51.02;101889.47;10461704;28;20244;-70
2022/04/16 18:18:41;;;;;;;5.60;2.00;;;;;;;9.23;51.70;101891.03;10461622;28;20220;-70
2022/04/16 18:23:44;;;;;;;10.23;2.90;;;;;;;9.30;50.32;101887.72;10460821;28;20227;-70
2022/04/16 18:28:49;;;;;;;7.00;3.00;;;;;;;9.20;51.73;101900.47;10461260;28;20221;-69
2022/04/16 18:33:54;;;;;;;6.47;2.37;;;;;;;9.19;48.98;101896.13;10461645;28;20238;-69
2022/04/16 18:38:59;;;;;;;6.47;2.33;;;;;;;9.19;50.29;101897.03;10460959;28;20254;-68
2022/04/16 18:44:04;;;;;;;7.43;2.63;;;;;;;9.16;48.65;101896.94;10460461;28;20289;-67
2022/04/16 18:49:08;;;;;;;6.27;2.13;;;;;;;9.07;52.85;101912.31;10460245;28;20244;-71
2022/04/16 18:54:11;;;;;;;7.00;2.10;;;;;;;9.09;51.87;101910.59;10460084;28;20243;-69
2022/04/16 18:59:16;;;;;;;5.43;2.27;;;;;;;9.05;53.61;101916.59;10460519;28;20240;-70
2022/04/16 19:09:40;;;;;;;5.00;1.90;;;;;;;9.10;50.54;101922.72;10459496;28;20680;-65
2022/04/16 19:14:47;;;;;;;4.23;1.77;;;;;;;9.00;52.75;101920.78;10459245;28;20220;-67
2022/04/16 19:19:50;;;;;;;5.43;1.63;;;;;;;9.04;51.05;101922.59;10458945;28;20234;-64
2022/04/16 19:24:54;;;;;;;7.50;1.93;;;;;;;9.08;49.94;101919.22;10457627;28;20216;-68
2022/04/16 19:29:58;;;;;;;6.67;2.20;;;;;;;9.03;49.85;101920.84;10456675;28;20229;-66
2022/04/16 19:35:02;;;;;;;5.53;1.80;;;;;;;8.95;51.79;101922.41;10455013;28;20219;-69
2022/04/16 19:40:07;;;;;;;5.37;2.17;;;;;;;8.84;56.03;101918.69;10455501;28;20605;-69
2022/04/16 19:45:11;;;;;;;7.73;2.40;;;;;;;8.85;52.02;101923.03;10455566;28;20239;-68
2022/04/16 19:50:15;;;;;;;6.30;2.80;;;;;;;8.77;52.21;101927.16;10455354;28;20224;-69
2022/04/16 19:55:18;;;;;;;5.73;2.30;;;;;;;8.68;53.36;101931.28;10068155;28;9999818;-67
2022/04/16 20:00:26;;;;;;;5.20;2.43;;;;;;;8.64;54.99;101930.34;10413848;28;20243;-68
2022/04/16 20:05:29;;;;;;;5.67;2.40;;;;;;;8.70;55.18;101933.06;10413764;28;20681;-68
2022/04/16 20:10:46;;;;;;;7.30;2.30;;;;;;;8.72;54.04;101946.03;10413839;28;20225;-67
2022/04/16 20:15:51;;;;;;;5.77;2.17;;;;;;;8.66;57.17;101938.97;10413571;28;20237;-68
2022/04/16 20:20:55;;;;;;;6.60;2.10;;;;;;;8.64;57.18;101938.09;10413972;28;20232;-69
2022/04/16 20:25:59;;;;;;;6.40;2.67;;;;;;;8.64;57.02;101934.63;10414086;28;20213;-69
2022/04/16 20:31:04;;;;;;;5.27;1.93;;;;;;;8.69;56.97;101933.03;10413379;28;20279;-71
2022/04/16 20:36:09;;;;;;;7.23;2.60;;;;;;;8.68;60.19;101939.03;10413923;28;20295;-65
2022/04/16 20:46:35;;;;;;;6.47;2.80;;;;;;;8.52;58.66;101944.69;10417732;28;20231;-69
2022/04/16 20:56:59;;;;;;;6.53;3.40;;;;;;;8.30;61.26;101940.72;10461670;28;20281;-69
2022/04/16 21:02:04;;;;;;;8.17;2.60;;;;;;;8.21;61.67;101938.75;10461671;28;20307;-68
2022/04/16 21:07:07;;;;;;;6.03;2.10;;;;;;;8.09;59.98;101940.16;10460984;28;20535;-68
2022/04/16 21:12:12;;;;;;;6.70;2.83;;;;;;;8.08;58.85;101940.97;10460762;28;20209;-69
2022/04/16 21:17:17;;;;;;;5.83;2.67;;;;;;;7.91;62.87;101937.09;10462533;28;20662;-69
2022/04/16 21:22:20;;;;;;;6.80;2.77;;;;;;;7.87;62.00;101940.44;10460339;28;20551;-69
2022/04/16 21:27:24;;;;;;;7.23;2.77;;;;;;;7.82;61.29;101940.31;10460520;28;20671;-68
2022/04/16 21:32:28;;;;;;;7.90;3.07;;;;;;;7.70;61.97;101936.53;10460303;28;20228;-67
2022/04/16 21:37:32;;;;;;;7.93;3.43;;;;;;;7.63;61.25;101950.09;10459872;28;20243;-65
2022/04/16 21:42:35;;;;;;;8.13;2.90;;;;;;;7.55;64.94;101955.09;10459962;28;20216;-68
2022/04/16 21:47:40;;;;;;;5.57;2.60;;;;;;;7.45;64.25;101949.63;10460474;28;20598;-70
2022/04/16 21:52:44;;;;;;;4.90;2.07;;;;;;;7.32;63.01;101958.72;10459621;28;20231;-68
2022/04/16 21:57:48;;;;;;;6.50;2.57;;;;;;;7.32;63.01;101947.50;10458192;28;20614;-70
2022/04/16 22:02:52;;;;;;;5.90;2.37;;;;;;;7.15;63.30;101962.53;10458887;28;20563;-70
2022/04/16 22:07:56;;;;;;;8.20;3.27;;;;;;;7.14;65.59;101957.31;10458956;28;20220;-69
2022/04/16 22:12:59;;;;;;;6.37;2.27;;;;;;;7.06;66.13;101962.25;10459368;28;20303;-68
2022/04/16 22:18:04;;;;;;;6.97;2.30;;;;;;;6.96;63.19;101961.13;10458598;28;20213;-65
2022/04/16 22:23:08;;;;;;;6.43;2.70;;;;;;;6.91;65.22;101965.25;10458069;28;20189;-66
2022/04/16 22:28:11;;;;;;;6.07;2.27;;;;;;;6.86;65.51;101972.00;10458681;28;20310;-67
2022/04/16 22:33:16;;;;;;;5.10;2.17;;;;;;;6.77;65.78;101979.44;10458255;28;20189;-68
2022/04/16 22:43:40;;;;;;;7.77;2.57;;;;;;;6.64;67.86;101974.72;10458907;28;20250;-67
2022/04/16 22:48:45;;;;;;;5.40;2.30;;;;;;;6.51;66.70;101975.16;10457442;28;20196;-68
2022/04/16 22:53:50;;;;;;;6.53;2.43;;;;;;;6.54;64.95;101967.50;10457671;28;20268;-67
2022/04/16 22:58:55;;;;;;;4.83;2.40;;;;;;;6.41;66.49;101967.06;10457794;28;20216;-69
2022/04/16 23:03:59;;;;;;;5.43;2.30;;;;;;;6.32;69.04;101966.78;10456744;28;20196;-69
2022/04/16 23:09:02;;;;;;;7.20;2.73;;;;;;;6.30;70.02;101976.19;10457467;28;20625;-68
2022/04/16 23:14:06;;;;;;;5.97;2.80;;;;;;;6.24;67.91;101971.69;10456670;28;20230;-71
2022/04/16 23:19:12;;;;;;;6.57;2.70;;;;;;;6.25;68.88;101963.13;10456167;28;20227;-67
2022/04/16 23:24:15;;;;;;;6.57;2.50;;;;;;;6.09;68.09;101966.00;10456301;28;20275;-67
2022/04/16 23:29:18;;;;;;;6.07;2.40;;;;;;;5.98;68.08;101971.63;10456305;28;20193;-68
2022/04/16 23:34:23;;;;;;;6.03;2.20;;;;;;;5.93;69.92;101961.19;10456221;28;20213;-68
2022/04/16 23:39:26;;;;;;;7.13;2.70;;;;;;;5.93;71.31;101965.44;10456167;28;20221;-67
2022/04/16 23:49:52;;;;;;;9.40;2.80;;;;;;;5.75;69.49;101963.97;10458593;28;20250;-67
2022/04/16 23:54:55;;;;;;;6.23;2.50;;;;;;;5.70;70.47;101965.50;10458557;28;20275;-68
2022/04/16 23:59:58;;;;;;;7.03;2.60;;;;;;;5.67;69.98;101959.38;10458254;28;20233;-70
